Página principal
METAR-TAF:

METAR-TAF

Aeroportos :

Amã, Jordânia

latitude: 31-59N, longitude: 035-59E, altura: 767 m

Observação actual do tempo

O boletim foi feito há 1 hora e 8 minutos, às 09:00 UTC
Vento 10 kt de noroeste
Temperatura 28°C
Humidade 42%
Pressão 1011 hPa
Visibilidade: 5000 m
Poucas nuvensa uma altura de 3000 ft
bruma

METAR: OJAM 180900Z 32010KT 5000 HZ FEW030 28/14 Q1011 NOSIG

Hora: 13:08 (10:08 UTC)

Previsão

O boletim foi feito há 5 horas e 41 minutos, às 04:27 UTC
Previsão válida de 18 às 06 UTC a 19 às 12 UTC
Vento 10 kt de oeste
Visibilidade: 5000 m
Poucas nuvensa uma altura de 3000 ft
bruma
Tornando-se
de 18 às 07 UTC a 08 às 09 UTC

TAF: OJAM 180427Z 1806/1912 28010KT 5000 HZ FEW030 BECMG 1807/0809 NSC

Observações e previsões do tempo de mais de 4000 aeroportos (mensagens METAR e TAF).

As estações disponíveis são os pontos amarelos e vermelhos sobre o mapa.

Mova o rato sobre o mapa para ver o nome da estação.

Depois clique no ponto para visualizar as observações e previsões meteorológicas.

Para alterar o mapa : clique nos botões verdes com uma cruz preta para aumentar o zoom; no botão verde com uma pitada de zoom; ou nas setas verdes para mapas adjacentes.


METAR-TAF: